Jacquet River, Canada
Current Conditions -  °F | °C
As of 8:00 PM on Saturday 20 Dec 2014 (Local Time) from CZBF Reporting Station
Light Snow Light Snow  
Wind Chill: 19°   Ceiling: 2600
Heat Index: 19°   Visibility: 15mi
Dew Point: 18°   Wind: 2mph
Humidity: 93%   Direction: NA
Pressure: 30.4"   Gusts: NA
Location:  47.92°N, 66°W
Report Text: CZBF 210000Z VRB02KT 15SM -SN BKN026 M07/M08 A3040 RMK SC7 SLP299
Loading
Personal Weather Stations






























Interactive Weather Map New forecast layout! Learn more

10-Day Weather Forecast

Advertisements
Track Severe Weather on mobile